Map

Track Data

SID SEASON NUMBER BASIN SUBBASIN NAME ISO_TIME NATURE LAT LON WMO_WIND WMO_PRES WMO_AGENCY TRACK_TYPE DIST2LAND LANDFALL IFLAG USA_AGENCY USA_ATCF_ID USA_LAT USA_LON USA_RECORD USA_STATUS USA_WIND USA_PRES USA_SSHS USA_R34_NE USA_R34_SE USA_R34_SW USA_R34_NW USA_R50_NE USA_R50_SE USA_R50_SW USA_R50_NW USA_R64_NE USA_R64_SE USA_R64_SW USA_R64_NW USA_POCI USA_ROCI USA_RMW USA_EYE TOKYO_LAT TOKYO_LON TOKYO_GRADE TOKYO_WIND TOKYO_PRES TOKYO_R50_DIR TOKYO_R50_LONG TOKYO_R50_SHORT TOKYO_R30_DIR TOKYO_R30_LONG TOKYO_R30_SHORT TOKYO_LAND CMA_LAT CMA_LON CMA_CAT CMA_WIND CMA_PRES HKO_LAT HKO_LON HKO_CAT HKO_WIND HKO_PRES NEWDELHI_LAT NEWDELHI_LON NEWDELHI_GRADE NEWDELHI_WIND NEWDELHI_PRES NEWDELHI_CI NEWDELHI_DP NEWDELHI_POCI REUNION_LAT REUNION_LON REUNION_TYPE REUNION_WIND REUNION_PRES REUNION_TNUM REUNION_CI REUNION_RMW REUNION_R34_NE REUNION_R34_SE REUNION_R34_SW REUNION_R34_NW REUNION_R50_NE REUNION_R50_SE REUNION_R50_SW REUNION_R50_NW REUNION_R64_NE REUNION_R64_SE REUNION_R64_SW REUNION_R64_NW BOM_LAT BOM_LON BOM_TYPE BOM_WIND BOM_PRES BOM_TNUM BOM_CI BOM_RMW BOM_R34_NE BOM_R34_SE BOM_R34_SW BOM_R34_NW BOM_R50_NE BOM_R50_SE BOM_R50_SW BOM_R50_NW BOM_R64_NE BOM_R64_SE BOM_R64_SW BOM_R64_NW BOM_ROCI BOM_POCI BOM_EYE BOM_POS_METHOD BOM_PRES_METHOD NADI_LAT NADI_LON NADI_CAT NADI_WIND NADI_PRES WELLINGTON_LAT WELLINGTON_LON WELLINGTON_WIND WELLINGTON_PRES DS824_LAT DS824_LON DS824_STAGE DS824_WIND DS824_PRES TD9636_LAT TD9636_LON TD9636_STAGE TD9636_WIND TD9636_PRES TD9635_LAT TD9635_LON TD9635_WIND TD9635_PRES TD9635_ROCI NEUMANN_LAT NEUMANN_LON NEUMANN_CLASS NEUMANN_WIND NEUMANN_PRES MLC_LAT MLC_LON MLC_CLASS MLC_WIND MLC_PRES USA_GUST BOM_GUST BOM_GUST_PER REUNION_GUST REUNION_GUST_PER USA_SEAHGT USA_SEARAD_NE USA_SEARAD_SE USA_SEARAD_SW USA_SEARAD_NW STORM_SPEED STORM_DIR
1968224N22091 1968 64 NI BB NOT_NAMED 1968-08-10 18:00:00 TS 21.9000 90.6000 main 11 11 O________O____ jtwc_io IO071968 21.9000 90.6000 -1 21.9000 90.6000 TC 4 283
1968224N22091 1968 64 NI BB NOT_NAMED 1968-08-10 21:00:00 TS 21.9400 90.4100 main 15 0 P________P____ IO071968 21.9400 90.4100 -1 21.9400 90.4100 TC 4 285
1968224N22091 1968 64 NI BB NOT_NAMED 1968-08-11 00:00:00 TS 22.0000 90.2000 main 0 0 O________O____ jtwc_io IO071968 22.0000 90.2000 -1 22.0000 90.2000 TC 25 4 290
1968224N22091 1968 64 NI BB NOT_NAMED 1968-08-11 03:00:00 TS 22.0933 89.9622 main 0 0 P________PO___ IO071968 22.0925 89.9575 -1 22.0925 89.9575 TC 25 22.1000 90.0000 1 5 294
1968224N22091 1968 64 NI BB NOT_NAMED 1968-08-11 06:00:00 TS 22.2024 89.6976 main 0 0 O________OP___ jtwc_io IO071968 22.2000 89.7000 -1 22.2000 89.7000 TC 25 22.2118 89.6880 1 5 293
1968224N22091 1968 64 NI BB NOT_NAMED 1968-08-11 09:00:00 TS 22.3050 89.4338 main 0 0 P________PP___ IO071968 22.3000 89.4500 -1 22.3000 89.4500 TC 25 22.3186 89.3906 1 5 293
1968224N22091 1968 64 NI BB NOT_NAMED 1968-08-11 12:00:00 TS 22.4053 89.1743 main 0 0 O________OP___ jtwc_io IO071968 22.4000 89.2000 -1 22.4000 89.2000 TC 25 22.4160 89.1229 1 5 293
1968224N22091 1968 64 NI BB NOT_NAMED 1968-08-11 15:00:00 TS 22.5050 88.9233 main 0 0 P________PO___ IO071968 22.5075 88.9350 -1 22.5075 88.9350 TC 25 22.5000 88.9000 1 5 293
1968224N22091 1968 64 NI BB NOT_NAMED 1968-08-11 18:00:00 TS 22.5892 88.7090 main 0 0 O________OP___ jtwc_io IO071968 22.6000 88.7000 -1 22.6000 88.7000 TC 25 22.5676 88.7269 1 4 294
1968224N22091 1968 64 NI BB NOT_NAMED 1968-08-11 21:00:00 TS 22.6502 88.5707 main 0 0 P________PP___ IO071968 22.6648 88.5724 -1 22.6648 88.5724 TC 25 22.6212 88.5671 1 3 289
1968224N22091 1968 64 NI BB NOT_NAMED 1968-08-12 00:00:00 TS 22.6881 88.3913 main 0 0 O________OP___ jtwc_io IO071968 22.7000 88.4000 -1 22.7000 88.4000 TC 25 22.6642 88.3738 1 5 276
1968224N22091 1968 64 NI BB NOT_NAMED 1968-08-12 03:00:00 TS 22.7000 88.0682 main 0 0 P________PO___ IO071968 22.7000 88.0524 -1 22.7000 88.0524 TC 25 22.7000 88.1000 1 7 272
1968224N22091 1968 64 NI BB NOT_NAMED 1968-08-12 06:00:00 TS 22.7109 87.6301 main 0 0 O________OP___ jtwc_io IO071968 22.7000 87.6000 -1 22.7000 87.6000 TC 25 22.7326 87.6902 1 9 274
1968224N22091 1968 64 NI BB NOT_NAMED 1968-08-12 09:00:00 TS 22.7527 87.1425 main 0 0 P________PP___ IO071968 22.7500 87.1151 -1 22.7500 87.1151 TC 25 22.7581 87.1973 1 9 275
1968224N22091 1968 64 NI BB NOT_NAMED 1968-08-12 12:00:00 TS 22.7931 86.6186 main 0 0 O________OP___ jtwc_io IO071968 22.8000 86.6000 -1 22.8000 86.6000 TC 25 22.7794 86.6558 1 10 273
1968224N22091 1968 64 NI BB NOT_NAMED 1968-08-12 15:00:00 TS 22.7998 86.1049 main 0 0 P________PO___ IO071968 22.7998 86.1073 -1 22.7998 86.1073 TC 25 22.8000 86.1000 1 10 271
1968224N22091 1968 64 NI BB NOT_NAMED 1968-08-12 18:00:00 TS 22.8058 85.5791 main 0 0 O________OP___ jtwc_io IO071968 22.8000 85.6000 -1 22.8000 85.6000 TC 25 22.8173 85.5374 1 10 273
1968224N22091 1968 64 NI BB NOT_NAMED 1968-08-12 21:00:00 TS 22.8453 85.0151 main 0 0 P________PP___ IO071968 22.8501 85.0352 -1 22.8501 85.0352 TC 25 22.8358 84.9749 1 10 275
1968224N22091 1968 64 NI BB NOT_NAMED 1968-08-13 00:00:00 TS 22.8871 84.4833 main 0 0 O________OP___ jtwc_io IO071968 22.9000 84.5000 -1 22.9000 84.5000 TC 25 22.8612 84.4499 1 9 273
1968224N22091 1968 64 NI BB NOT_NAMED 1968-08-13 03:00:00 TS 22.8949 84.0366 main 0 0 P________PO___ IO071968 22.8924 84.0548 -1 22.8924 84.0548 TC 25 22.9000 84.0000 1 7 272
1968224N22091 1968 64 NI BB NOT_NAMED 1968-08-13 06:00:00 TS 22.9185 83.6930 main 0 0 O________OP___ jtwc_io IO071968 22.9000 83.7000 -1 22.9000 83.7000 TC 25 22.9554 83.6790 1 6 280
1968224N22091 1968 64 NI BB NOT_NAMED 1968-08-13 09:00:00 TS 22.9986 83.4291 main 0 0 P________PP___ IO071968 22.9848 83.4275 -1 22.9848 83.4275 TC 25 23.0261 83.4323 1 5 292
1968224N22091 1968 64 NI BB NOT_NAMED 1968-08-13 12:00:00 TS 23.1029 83.2065 main 0 0 O________OP___ jtwc_io IO071968 23.1000 83.2000 -1 23.1000 83.2000 TC 25 23.1088 83.2195 1 5 296
1968224N22091 1968 64 NI BB NOT_NAMED 1968-08-13 15:00:00 TS 23.1999 82.9716 main 0 0 P________PO___ IO071968 23.1999 82.9574 -1 23.1999 82.9574 TC 25 23.2000 83.0000 1 5 294
1968224N22091 1968 64 NI BB NOT_NAMED 1968-08-13 18:00:00 TS 23.2986 82.7167 main 0 0 O________OP___ jtwc_io IO071968 23.3000 82.7000 -1 23.3000 82.7000 TC 25 23.2964 82.7419 1 5 292
1968224N22091 1968 64 NI BB NOT_NAMED 1968-08-13 21:00:00 TS 23.3984 82.4263 main 0 0 P________PP___ IO071968 23.4002 82.4101 -1 23.4002 82.4101 TC 25 23.3961 82.4480 1 6 290
1968224N22091 1968 64 NI BB NOT_NAMED 1968-08-14 00:00:00 TS 23.4989 82.1151 main 0 0 O________OP___ jtwc_io IO071968 23.5000 82.1000 -1 23.5000 82.1000 TC 25 23.4978 82.1301 1 6 289
1968224N22091 1968 64 NI BB NOT_NAMED 1968-08-14 03:00:00 NR 23.6000 81.8000 main 0 __________O___ IO071968 -1 TC 23.6000 81.8000 1 6 289

About IBTrACS Database

This database is a web-friendly format of International Best Track Archive for Climate Stewardship (IBTrACS), a global best track data archive curated by NOAA dating back to 1842.

Updated: 2021-10-08